Time;durP1;ratioP1;P1;durP2;ratioP2;P2;SDS_P1;SDS_P2;PMS_P1;PMS_P2;Temp;Humidity;BMP_temperature;BMP_pressure;BME280_temperature;BME280_humidity;BME280_pressure;Samples;Min_cycle;Max_cycle;Signal;HPM_P1;HPM_P2
2021/12/24 00:02:06;;;;;;;19.30;9.85;;;;;;;9.29;100.00;100304.91;5132155;28;20058;-32
2021/12/24 00:04:34;;;;;;;20.85;9.20;;;;;;;9.29;100.00;100318.00;5122281;28;20040;-34
2021/12/24 00:07:04;;;;;;;21.85;10.88;;;;;;;9.29;100.00;100318.81;5131833;28;20510;-32
2021/12/24 00:09:33;;;;;;;23.83;10.00;;;;;;;9.27;100.00;100307.16;5128807;28;20040;-37
2021/12/24 00:12:02;;;;;;;23.08;9.52;;;;;;;9.27;100.00;100304.38;5122941;28;20043;-36
2021/12/24 00:14:31;;;;;;;23.67;9.02;;;;;;;9.28;100.00;100313.56;5115655;28;20047;-34
2021/12/24 00:17:03;;;;;;;21.25;8.82;;;;;;;9.30;100.00;100308.50;5119802;28;20075;-35
2021/12/24 00:19:42;;;;;;;19.38;8.63;;;;;;;9.28;100.00;100308.81;5126623;28;20043;-35
2021/12/24 00:22:57;;;;;;;21.25;7.88;;;;;;;9.30;100.00;100316.88;5122602;28;20488;-37
2021/12/24 00:36:20;;;;;;;23.02;8.35;;;;;;;9.29;100.00;100292.94;5118806;28;20051;-31
2021/12/24 00:38:51;;;;;;;27.10;8.75;;;;;;;9.30;100.00;100292.63;5126298;28;20061;-40
2021/12/24 00:41:18;;;;;;;22.63;9.23;;;;;;;9.32;100.00;100304.28;5122287;28;20053;-35
2021/12/24 00:43:46;;;;;;;22.42;9.52;;;;;;;9.33;100.00;100299.56;5131986;28;20104;-33
2021/12/24 00:46:14;;;;;;;23.33;9.15;;;;;;;9.33;100.00;100299.56;5122164;28;20039;-37
2021/12/24 00:48:42;;;;;;;28.88;10.40;;;;;;;9.33;100.00;100293.97;5131300;28;20039;-33
2021/12/24 00:51:22;;;;;;;24.83;9.75;;;;;;;9.34;100.00;100298.41;5122317;28;20070;-33
2021/12/24 00:56:37;;;;;;;24.65;9.05;;;;;;;9.32;100.00;100297.91;5120578;27;20036;-33
2021/12/24 00:59:06;;;;;;;26.85;9.63;;;;;;;9.32;100.00;100295.94;5127815;27;20050;-37
2021/12/24 01:01:34;;;;;;;29.85;11.23;;;;;;;9.31;100.00;100291.50;5110484;27;20049;-36
2021/12/24 01:04:02;;;;;;;20.10;10.45;;;;;;;9.30;100.00;100292.63;5124055;27;20138;-33
2021/12/24 01:06:31;;;;;;;28.83;11.98;;;;;;;9.31;100.00;100288.72;5095783;28;20118;-35
2021/12/24 01:09:00;;;;;;;25.33;11.50;;;;;;;9.31;100.00;100291.50;5134879;27;20089;-32
2021/12/24 01:11:28;;;;;;;23.77;10.98;;;;;;;9.32;100.00;100293.16;5128342;27;20057;-38
2021/12/24 01:13:57;;;;;;;24.00;11.00;;;;;;;9.32;100.00;100295.13;5104384;27;20559;-34
2021/12/24 01:16:31;;;;;;;24.52;10.50;;;;;;;9.30;100.00;100281.50;5129324;27;20080;-31
2021/12/24 01:19:04;;;;;;;26.30;9.50;;;;;;;9.29;100.00;100288.19;5114724;28;20104;-35
2021/12/24 01:21:53;;;;;;;23.88;10.05;;;;;;;9.30;100.00;100297.38;5101134;27;20062;-37
2021/12/24 01:24:29;;;;;;;23.40;10.15;;;;;;;9.29;100.00;100288.19;5107161;28;20135;-36
2021/12/24 01:27:05;;;;;;;22.30;9.85;;;;;;;9.29;100.00;100287.38;5119081;27;20055;-38
2021/12/24 01:29:46;;;;;;;31.17;10.10;;;;;;;9.30;100.00;100291.81;5114789;27;20426;-35
2021/12/24 01:37:54;;;;;;;26.60;11.27;;;;;;;9.27;100.00;100293.22;5110260;27;20054;-30
2021/12/24 01:40:26;;;;;;;23.80;11.25;;;;;;;9.29;100.00;100290.97;5107736;27;20100;-36
2021/12/24 01:42:55;;;;;;;20.85;10.75;;;;;;;9.28;100.00;100302.41;5124182;27;20514;-37
2021/12/24 01:45:26;;;;;;;28.42;11.68;;;;;;;9.27;100.00;100298.81;5115298;27;20042;-38
2021/12/24 01:48:00;;;;;;;27.48;11.02;;;;;;;9.27;100.00;100301.59;5111117;27;20108;-37
2021/12/24 01:50:31;;;;;;;31.83;11.05;;;;;;;9.25;100.00;100292.72;5115449;27;20488;-35
2021/12/24 01:53:00;;;;;;;32.75;10.57;;;;;;;9.25;100.00;100289.94;5111048;27;20108;-33
2021/12/24 01:55:30;;;;;;;26.13;9.43;;;;;;;9.24;100.00;100299.41;5103654;27;20107;-33
2021/12/24 01:57:58;;;;;;;32.40;10.60;;;;;;;9.23;100.00;100306.09;5127286;27;20138;-37
2021/12/24 02:00:29;;;;;;;31.10;10.35;;;;;;;9.22;100.00;100311.97;5106442;28;20044;-35
2021/12/24 02:02:57;;;;;;;27.75;10.13;;;;;;;9.22;100.00;100312.81;5101801;27;20066;-36
2021/12/24 02:05:26;;;;;;;32.13;11.00;;;;;;;9.21;100.00;100313.09;5110147;28;20047;-35
2021/12/24 02:07:54;;;;;;;31.25;10.95;;;;;;;9.20;100.00;100325.38;5116011;27;20520;-40
2021/12/24 02:10:22;;;;;;;29.88;10.60;;;;;;;9.18;100.00;100319.31;5128611;27;20047;-37
2021/12/24 02:12:54;;;;;;;29.27;10.55;;;;;;;9.16;100.00;100319.59;5114284;27;20044;-31
2021/12/24 02:15:33;;;;;;;31.80;10.27;;;;;;;9.14;100.00;100319.06;5110947;27;20443;-35
2021/12/24 02:18:21;;;;;;;26.45;9.50;;;;;;;9.11;100.00;100308.53;5110676;28;20143;-34
2021/12/24 02:29:13;;;;;;;26.17;7.82;;;;;;;9.03;100.00;100286.94;5103166;27;20051;-42
2021/12/24 02:31:41;;;;;;;18.08;7.07;;;;;;;9.04;100.00;100291.38;5124319;27;20043;-38
2021/12/24 02:34:09;;;;;;;20.27;7.57;;;;;;;9.07;100.00;100296.34;5117995;27;20553;-40
2021/12/24 02:36:39;;;;;;;24.75;7.88;;;;;;;9.07;100.00;100301.91;5103443;27;20095;-32
2021/12/24 02:39:06;;;;;;;22.42;6.93;;;;;;;9.07;100.00;100295.53;5110684;27;20067;-39
2021/12/24 02:41:34;;;;;;;23.83;7.10;;;;;;;9.07;100.00;100292.75;5108840;28;20071;-35
2021/12/24 02:44:02;;;;;;;24.63;7.00;;;;;;;9.07;100.00;100285.22;5100354;27;20039;-38
2021/12/24 02:46:36;;;;;;;20.52;6.78;;;;;;;9.07;100.00;100279.66;5119355;27;20051;-31
2021/12/24 02:49:15;;;;;;;22.52;6.60;;;;;;;9.07;100.00;100279.66;5131158;27;20045;-36
2021/12/24 02:54:31;;;;;;;21.17;5.85;;;;;;;9.06;100.00;100278.00;5128349;27;20147;-33
2021/12/24 02:57:07;;;;;;;23.73;6.35;;;;;;;9.07;100.00;100281.63;5124907;27;20047;-35
2021/12/24 02:59:46;;;;;;;23.33;6.63;;;;;;;9.08;100.00;100286.06;5100018;27;20120;-37
2021/12/24 03:02:14;;;;;;;24.15;6.82;;;;;;;9.08;100.00;100281.31;5119772;27;20116;-36
2021/12/24 03:04:42;;;;;;;24.55;5.90;;;;;;;9.10;100.00;100292.16;5112254;27;20046;-36
2021/12/24 03:07:11;;;;;;;26.63;6.32;;;;;;;9.09;100.00;100284.94;5100420;27;20047;-32
2021/12/24 03:09:38;;;;;;;22.70;6.53;;;;;;;9.11;100.00;100285.44;5132271;27;20035;-38
2021/12/24 03:12:07;;;;;;;26.60;6.00;;;;;;;9.13;100.00;100283.19;5123616;27;20046;-32
2021/12/24 03:14:35;;;;;;;28.00;6.18;;;;;;;9.13;100.00;100289.59;5095054;27;20035;-34
2021/12/24 03:17:09;;;;;;;18.70;5.80;;;;;;;9.14;100.00;100291.25;5118158;27;20039;-33
2021/12/24 03:19:37;;;;;;;21.02;5.65;;;;;;;9.12;100.00;100279.59;5112629;27;20043;-33
2021/12/24 03:22:14;;;;;;;22.98;6.60;;;;;;;9.13;100.00;100283.19;5101186;28;20039;-37
2021/12/24 03:24:43;;;;;;;22.02;6.28;;;;;;;9.12;100.00;100287.94;5112491;27;20082;-38
2021/12/24 03:27:12;;;;;;;24.55;6.65;;;;;;;9.11;100.00;100283.50;5126497;27;20362;-40
2021/12/24 03:29:40;;;;;;;28.63;6.68;;;;;;;9.12;100.00;100281.53;5114436;27;20056;-30
2021/12/24 03:32:09;;;;;;;26.85;6.50;;;;;;;9.10;100.00;100273.50;5119950;27;20134;-37
2021/12/24 03:34:37;;;;;;;25.65;6.50;;;;;;;9.09;100.00;100274.63;5108775;27;20078;-32
2021/12/24 03:37:06;;;;;;;20.42;6.57;;;;;;;9.07;100.00;100279.66;5104630;28;20056;-31
2021/12/24 03:39:36;;;;;;;30.25;6.57;;;;;;;9.06;100.00;100280.78;5107564;27;20095;-35
2021/12/24 03:42:06;;;;;;;21.73;6.15;;;;;;;9.07;100.00;100278.81;5122637;27;20040;-33
2021/12/24 03:44:41;;;;;;;24.73;6.60;;;;;;;9.04;100.00;100268.31;5113558;28;20043;-40
2021/12/24 03:47:12;;;;;;;23.13;7.03;;;;;;;9.02;100.00;100271.38;5107303;28;20062;-34
2021/12/24 03:49:55;;;;;;;25.63;6.07;;;;;;;9.02;100.00;100270.56;5105632;27;20047;-37
2021/12/24 03:52:39;;;;;;;28.27;6.28;;;;;;;9.00;100.00;100276.41;5108767;28;20146;-33
2021/12/24 03:55:07;;;;;;;26.92;6.35;;;;;;;8.98;100.00;100276.75;5117335;28;20195;-39
2021/12/24 03:57:39;;;;;;;28.30;6.45;;;;;;;8.99;100.00;100270.03;5105018;28;20134;-34
2021/12/24 04:00:33;;;;;;;26.70;5.90;;;;;;;8.97;100.00;100279.84;5115734;28;20415;-32
2021/12/24 04:03:21;;;;;;;22.20;5.65;;;;;;;8.96;100.00;100275.41;5098296;28;20066;-30
2021/12/24 04:06:08;;;;;;;17.17;4.97;;;;;;;8.94;100.00;100270.13;5113246;28;20071;-36
2021/12/24 04:08:56;;;;;;;22.42;4.53;;;;;;;8.92;100.00;100277.97;5086109;28;20058;-34
2021/12/24 04:11:43;;;;;;;21.92;5.22;;;;;;;8.90;100.00;100269.09;5109682;28;20039;-33
2021/12/24 04:14:12;;;;;;;25.17;5.50;;;;;;;8.91;100.00;100278.25;5098475;28;20043;-37
2021/12/24 04:16:40;;;;;;;22.20;5.20;;;;;;;8.90;100.00;100274.66;5111402;28;20055;-33
2021/12/24 04:24:52;;;;;;;25.83;4.78;;;;;;;8.89;100.00;100280.50;5099941;28;20130;-32
2021/12/24 04:27:23;;;;;;;23.23;5.10;;;;;;;8.89;100.00;100280.50;5127328;28;20554;-31
2021/12/24 04:30:01;;;;;;;26.48;5.57;;;;;;;8.89;100.00;100273.00;5109390;28;20051;-29
2021/12/24 04:32:47;;;;;;;31.33;6.60;;;;;;;8.88;100.00;100288.03;5111296;27;20048;-33
2021/12/24 04:35:32;;;;;;;20.42;4.93;;;;;;;8.87;100.00;100288.34;5106204;27;20078;-38
2021/12/24 04:38:12;;;;;;;26.35;5.18;;;;;;;8.86;100.00;100284.72;5130693;27;20070;-39
2021/12/24 04:51:54;;;;;;;29.88;5.05;;;;;;;8.83;100.00;100296.44;5104104;28;20052;-33
2021/12/24 05:02:56;;;;;;;20.52;4.80;;;;;;;8.80;100.00;100285.91;5113402;27;20100;-38
2021/12/24 05:05:36;;;;;;;;;;;;;;;8.74;100.00;100294.66;5111924;27;20047;-33
2021/12/24 05:10:48;;;;;;;22.23;5.10;;;;;;;8.77;100.00;100305.19;5101177;28;20055;-35
2021/12/24 05:13:21;;;;;;;22.00;5.45;;;;;;;8.80;100.00;100304.56;5111254;27;20061;-34
2021/12/24 05:16:23;;;;;;;24.13;4.47;;;;;;;8.79;100.00;100305.72;5107294;27;20062;-38
2021/12/24 05:22:10;;;;;;;23.08;4.97;;;;;;;8.79;100.00;100294.59;5029737;27;20073;-32
2021/12/24 05:24:41;;;;;;;21.88;4.57;;;;;;;8.80;100.00;100301.78;5128958;27;20051;-35
2021/12/24 05:27:08;;;;;;;16.20;3.97;;;;;;;8.80;100.00;100297.03;5129018;27;20046;-38
2021/12/24 05:29:36;;;;;;;20.77;4.20;;;;;;;8.82;100.00;100299.53;5117404;27;20138;-34
2021/12/24 05:32:06;;;;;;;23.65;4.68;;;;;;;8.83;100.00;100296.44;5111893;27;20043;-33
2021/12/24 05:34:35;;;;;;;21.20;4.03;;;;;;;8.83;100.00;100298.41;5111438;27;20055;-36
2021/12/24 05:37:04;;;;;;;26.10;4.53;;;;;;;8.83;100.00;100296.44;5120819;27;20050;-33
2021/12/24 05:39:31;;;;;;;23.83;4.13;;;;;;;8.84;100.00;100300.06;5131468;27;20050;-35
2021/12/24 05:41:59;;;;;;;24.00;4.32;;;;;;;8.85;100.00;100294.19;5110068;27;20047;-34
2021/12/24 05:44:29;;;;;;;22.58;3.97;;;;;;;8.86;100.00;100311.72;5113937;27;20058;-32
2021/12/24 05:47:07;;;;;;;22.90;4.25;;;;;;;8.86;100.00;100303.38;5111543;27;20080;-33
2021/12/24 05:49:49;;;;;;;21.65;3.70;;;;;;;8.86;100.00;100314.50;5095506;27;20526;-32
2021/12/24 05:52:56;;;;;;;21.17;3.67;;;;;;;8.84;100.00;100303.66;5121796;27;20583;-33
2021/12/24 05:55:40;;;;;;;20.80;3.40;;;;;;;8.84;100.00;100305.63;5110805;27;20047;-38
2021/12/24 05:58:16;;;;;;;22.27;3.92;;;;;;;8.86;100.00;100306.97;5106193;28;20555;-31
2021/12/24 06:00:46;;;;;;;24.65;4.22;;;;;;;8.88;100.00;100309.47;5099577;27;20047;-33
2021/12/24 06:03:15;;;;;;;23.88;4.38;;;;;;;8.88;100.00;100309.47;5102411;27;20066;-36
2021/12/24 06:05:46;;;;;;;22.40;4.05;;;;;;;8.88;100.00;100309.47;5129589;27;20063;-31
2021/12/24 06:08:14;;;;;;;23.58;3.85;;;;;;;8.88;100.00;100318.63;5129565;27;20058;-32
2021/12/24 06:10:42;;;;;;;25.55;4.85;;;;;;;8.88;100.00;100315.03;5131855;27;20051;-34
2021/12/24 06:13:10;;;;;;;25.48;4.15;;;;;;;8.88;100.00;100315.03;5126576;27;20043;-42
2021/12/24 06:15:44;;;;;;;20.73;3.70;;;;;;;8.88;100.00;100306.69;5132538;27;20059;-38
2021/12/24 06:18:20;;;;;;;21.30;3.60;;;;;;;8.86;100.00;100318.09;5118171;27;20040;-34
2021/12/24 06:20:49;;;;;;;27.52;4.68;;;;;;;8.86;100.00;100315.31;5114366;27;20051;-32
2021/12/24 06:23:19;;;;;;;28.23;3.85;;;;;;;8.87;100.00;100310.59;5129918;27;20039;-36
2021/12/24 06:25:47;;;;;;;14.57;2.83;;;;;;;8.86;100.00;100318.09;5114470;27;20225;-33
2021/12/24 06:28:15;;;;;;;28.33;3.83;;;;;;;8.87;100.00;100314.19;5128699;27;20049;-40
2021/12/24 06:30:43;;;;;;;25.50;3.50;;;;;;;8.87;100.00;100318.94;5115487;27;20051;-35
2021/12/24 06:33:11;;;;;;;24.27;3.92;;;;;;;8.86;100.00;100311.72;5120838;27;20051;-31
2021/12/24 06:35:39;;;;;;;22.17;3.95;;;;;;;8.87;100.00;100322.53;5128429;27;20043;-35
2021/12/24 06:38:08;;;;;;;22.02;3.30;;;;;;;8.87;100.00;100314.19;5123441;27;20541;-35
2021/12/24 06:40:36;;;;;;;22.73;3.90;;;;;;;8.87;100.00;100316.97;5119280;27;20408;-34
2021/12/24 06:43:05;;;;;;;14.65;3.00;;;;;;;8.87;100.00;100316.16;5120405;27;20040;-34
2021/12/24 06:45:34;;;;;;;16.80;3.58;;;;;;;8.88;100.00;100321.41;5120422;27;20044;-34
2021/12/24 06:48:03;;;;;;;21.13;3.10;;;;;;;8.89;100.00;100316.69;5121814;27;20082;-39
2021/12/24 06:50:32;;;;;;;23.98;3.00;;;;;;;8.88;100.00;100307.50;5122660;27;20058;-33
2021/12/24 06:53:00;;;;;;;21.02;3.55;;;;;;;8.88;100.00;100315.84;5128777;27;20408;-37
2021/12/24 06:55:30;;;;;;;18.73;3.47;;;;;;;8.90;100.00;100315.56;5120694;27;20063;-38
2021/12/24 06:58:05;;;;;;;21.27;3.53;;;;;;;8.89;100.00;100317.50;5108994;27;20576;-34
2021/12/24 07:00:35;;;;;;;25.70;3.15;;;;;;;8.90;100.00;100318.34;5102591;27;20586;-30
2021/12/24 07:03:06;;;;;;;26.08;3.53;;;;;;;8.89;100.00;100319.47;5109521;27;20116;-33
2021/12/24 07:05:34;;;;;;;18.63;3.58;;;;;;;8.88;100.00;100315.03;5120633;27;20053;-40
2021/12/24 07:08:02;;;;;;;19.60;3.78;;;;;;;8.91;100.00;100314.44;5127304;27;20580;-32
2021/12/24 07:10:31;;;;;;;17.00;3.28;;;;;;;8.91;100.00;100323.59;5119883;27;20047;-39
2021/12/24 07:12:59;;;;;;;25.63;3.60;;;;;;;8.90;100.00;100312.78;5128793;27;20050;-38
2021/12/24 07:15:26;;;;;;;28.42;3.95;;;;;;;8.91;100.00;100320.00;5108222;27;20489;-35
2021/12/24 07:17:54;;;;;;;31.35;4.07;;;;;;;8.90;100.00;100321.94;5115824;27;20133;-38
2021/12/24 07:20:22;;;;;;;26.77;4.60;;;;;;;8.92;100.00;100324.44;5114777;27;20073;-32
2021/12/24 07:22:50;;;;;;;19.77;3.75;;;;;;;8.92;100.00;100327.22;5129390;27;20050;-30
2021/12/24 07:25:18;;;;;;;25.70;3.60;;;;;;;8.92;100.00;100332.78;5124395;27;20484;-41
2021/12/24 07:27:47;;;;;;;20.05;3.42;;;;;;;8.90;100.00;100324.72;5093380;27;20050;-39
2021/12/24 07:30:16;;;;;;;24.58;4.00;;;;;;;8.90;100.00;100326.69;5119260;27;20047;-38
2021/12/24 07:32:43;;;;;;;24.67;3.67;;;;;;;8.91;100.00;100336.69;5126291;27;20241;-32
2021/12/24 07:35:11;;;;;;;22.35;3.53;;;;;;;8.92;100.00;100327.22;5119194;27;20134;-40
2021/12/24 07:37:41;;;;;;;24.65;3.83;;;;;;;8.92;100.00;100330.81;5125822;27;20089;-32
2021/12/24 07:40:10;;;;;;;23.10;2.90;;;;;;;8.93;100.00;100331.66;5121591;27;20062;-38
2021/12/24 07:42:38;;;;;;;20.55;3.22;;;;;;;8.92;100.00;100332.78;5124387;27;20088;-34
2021/12/24 07:45:09;;;;;;;21.38;3.67;;;;;;;8.92;100.00;100336.38;5125338;27;20078;-32
2021/12/24 07:47:40;;;;;;;21.02;3.08;;;;;;;8.90;100.00;100335.03;5118321;27;20058;-37
2021/12/24 07:51:56;;;;;;;23.10;3.65;;;;;;;8.90;100.00;100337.81;5118266;27;20047;-33
2021/12/24 07:53:07;;;;;;;21.65;3.20;;;;;;;8.87;100.00;100325.31;5124879;28;20043;-37
2021/12/24 07:55:36;;;;;;;18.65;3.45;;;;;;;8.86;100.00;100331.19;5126469;28;20058;-36
2021/12/24 07:58:04;;;;;;;18.30;3.33;;;;;;;8.87;100.00;100335.63;5117942;28;20455;-37
2021/12/24 08:00:33;;;;;;;28.95;3.58;;;;;;;8.86;100.00;100334.81;5122646;28;20434;-36
2021/12/24 08:03:03;;;;;;;22.05;3.55;;;;;;;8.87;100.00;100338.41;5118328;28;20055;-33
2021/12/24 08:05:33;;;;;;;20.52;3.92;;;;;;;8.87;100.00;100332.84;5119151;28;20044;-38
2021/12/24 08:08:01;;;;;;;21.25;3.90;;;;;;;8.86;100.00;100334.81;5123612;27;20035;-37
2021/12/24 08:10:30;;;;;;;21.90;3.92;;;;;;;8.87;100.00;100335.63;5130558;27;20047;-36
2021/12/24 08:12:58;;;;;;;26.30;4.00;;;;;;;8.86;100.00;100332.03;5126315;27;20040;-34
2021/12/24 08:15:26;;;;;;;22.27;3.28;;;;;;;8.86;100.00;100332.03;5119491;27;20512;-37
2021/12/24 08:17:55;;;;;;;17.33;3.80;;;;;;;8.85;100.00;100326.75;5125452;27;20504;-38
2021/12/24 08:20:25;;;;;;;21.25;3.67;;;;;;;8.85;100.00;100335.94;5117110;27;20511;-34
2021/12/24 08:22:55;;;;;;;20.45;3.55;;;;;;;8.84;100.00;100330.66;5120577;27;20490;-29
2021/12/24 08:25:24;;;;;;;22.67;3.70;;;;;;;8.83;100.00;100324.28;5128862;27;20118;-37
2021/12/24 08:27:52;;;;;;;20.80;3.55;;;;;;;8.84;100.00;100339.00;5122119;27;20485;-36
2021/12/24 08:30:20;;;;;;;24.15;3.83;;;;;;;8.83;100.00;100342.91;5132883;27;20091;-38
2021/12/24 08:32:48;;;;;;;16.75;3.65;;;;;;;8.82;100.00;100335.69;5117404;27;20047;-31
2021/12/24 08:35:20;;;;;;;25.55;4.07;;;;;;;8.83;100.00;100340.13;5133113;27;20577;-32
2021/12/24 08:37:48;;;;;;;25.10;4.22;;;;;;;8.83;100.00;100340.13;5131687;27;20047;-37
2021/12/24 08:40:16;;;;;;;26.63;3.67;;;;;;;8.82;100.00;100346.81;5114529;27;20063;-36
2021/12/24 08:42:44;;;;;;;19.83;4.03;;;;;;;8.81;100.00;100337.66;5130532;27;20423;-33
2021/12/24 08:45:12;;;;;;;21.42;3.80;;;;;;;8.81;100.00;100340.44;5133203;27;20044;-40
2021/12/24 08:47:41;;;;;;;19.92;3.28;;;;;;;8.82;100.00;100342.09;5119628;27;20039;-36
2021/12/24 08:50:12;;;;;;;21.55;3.55;;;;;;;8.83;100.00;100348.47;5128930;27;20050;-36
2021/12/24 08:52:44;;;;;;;22.65;3.33;;;;;;;8.82;100.00;100344.88;5124191;27;20039;-39
2021/12/24 08:55:12;;;;;;;26.88;4.03;;;;;;;8.82;100.00;100347.66;5128661;27;20051;-35
2021/12/24 08:57:41;;;;;;;23.27;3.97;;;;;;;8.83;100.00;100345.69;5125378;27;20051;-38
2021/12/24 09:00:11;;;;;;;22.38;3.97;;;;;;;8.82;100.00;100347.66;5120343;27;20055;-32
2021/12/24 09:02:40;;;;;;;23.75;3.42;;;;;;;8.82;100.00;100350.44;5126305;27;20507;-39
2021/12/24 09:05:10;;;;;;;24.85;4.38;;;;;;;8.83;100.00;100342.91;5122018;27;20408;-39
2021/12/24 09:07:38;;;;;;;24.42;4.28;;;;;;;8.82;100.00;100349.59;5118509;27;20058;-37
2021/12/24 09:10:08;;;;;;;21.60;3.55;;;;;;;8.84;100.00;100344.56;5124250;27;20051;-39
2021/12/24 09:12:36;;;;;;;26.00;4.70;;;;;;;8.83;100.00;100340.97;5120572;27;20052;-36
2021/12/24 09:15:05;;;;;;;22.70;4.03;;;;;;;8.84;100.00;100344.56;5125563;27;20055;-35
2021/12/24 09:17:33;;;;;;;18.77;3.80;;;;;;;8.86;100.00;100337.59;5118665;27;20042;-37
2021/12/24 09:20:01;;;;;;;17.17;3.55;;;;;;;8.88;100.00;100352.03;5126388;27;20500;-38
2021/12/24 09:22:33;;;;;;;22.92;4.35;;;;;;;8.90;100.00;100349.78;5118229;27;20105;-34
2021/12/24 09:25:01;;;;;;;24.80;3.97;;;;;;;8.92;100.00;100341.13;5121355;27;20043;-41
2021/12/24 09:27:32;;;;;;;22.70;4.22;;;;;;;8.94;100.00;100336.91;5128493;27;20451;-32
2021/12/24 09:30:00;;;;;;;19.08;3.60;;;;;;;8.96;100.00;100334.66;5120985;27;20043;-36
2021/12/24 09:32:29;;;;;;;19.25;3.28;;;;;;;8.97;100.00;100329.94;5130174;27;20051;-36
2021/12/24 09:34:57;;;;;;;20.67;3.78;;;;;;;9.01;100.00;100338.47;5113593;27;20052;-37
2021/12/24 09:37:25;;;;;;;18.27;3.67;;;;;;;9.01;100.00;100341.25;5132172;27;20431;-36
2021/12/24 09:39:53;;;;;;;20.73;3.60;;;;;;;9.01;100.00;100342.09;5116454;27;20515;-36
2021/12/24 09:42:21;;;;;;;19.38;3.65;;;;;;;9.03;100.00;100341.78;5131941;27;20079;-34
2021/12/24 09:44:50;;;;;;;20.65;3.58;;;;;;;9.04;100.00;100340.66;5128488;27;20414;-32
2021/12/24 09:47:18;;;;;;;22.17;3.67;;;;;;;9.04;100.00;100346.22;5114253;27;20051;-39
2021/12/24 09:49:46;;;;;;;19.80;3.60;;;;;;;9.04;100.00;100352.63;5126902;27;20389;-39
2021/12/24 09:52:14;;;;;;;25.88;3.65;;;;;;;9.06;100.00;100342.00;5115153;27;20054;-36
2021/12/24 09:54:43;;;;;;;18.40;3.88;;;;;;;9.07;100.00;100343.66;5119019;27;20047;-31
2021/12/24 09:57:12;;;;;;;19.40;4.05;;;;;;;9.05;100.00;100334.78;5126446;27;20055;-36
2021/12/24 09:59:40;;;;;;;23.63;4.43;;;;;;;9.07;100.00;100340.88;5126443;27;20055;-32
2021/12/24 10:02:17;;;;;;;20.98;4.30;;;;;;;9.08;100.00;100334.19;5124051;27;20138;-34
2021/12/24 10:04:47;;;;;;;19.38;3.83;;;;;;;9.11;100.00;100336.38;5124364;27;20043;-36
2021/12/24 10:07:17;;;;;;;21.15;4.03;;;;;;;9.13;100.00;100333.28;5123176;27;20495;-37
2021/12/24 10:09:49;;;;;;;23.90;4.50;;;;;;;9.13;100.00;100348.03;5125122;27;20104;-40
2021/12/24 10:12:18;;;;;;;22.48;4.50;;;;;;;9.14;100.00;100349.69;5121860;27;20162;-39
2021/12/24 10:14:50;;;;;;;22.27;4.45;;;;;;;9.15;100.00;100347.75;5121662;27;20043;-35
2021/12/24 10:17:22;;;;;;;23.92;4.15;;;;;;;9.16;100.00;100350.22;5121189;27;20582;-32
2021/12/24 10:19:51;;;;;;;20.13;3.95;;;;;;;9.15;100.00;100356.09;5129248;27;20051;-32
2021/12/24 10:22:26;;;;;;;19.13;3.80;;;;;;;9.15;100.00;100343.00;5120122;27;20465;-40
2021/12/24 10:25:01;;;;;;;23.63;4.43;;;;;;;9.16;100.00;100361.34;5126951;27;20046;-32
2021/12/24 10:27:31;;;;;;;9.73;1.95;;;;;;;9.12;100.00;100360.31;5124165;27;20104;-37
2021/12/24 10:29:58;;;;;;;12.70;2.03;;;;;;;9.09;100.00;100362.84;5118098;27;20058;-33
2021/12/24 10:32:27;;;;;;;7.70;1.30;;;;;;;9.06;100.00;100367.06;5124130;27;20492;-38
2021/12/24 10:34:55;;;;;;;8.38;1.40;;;;;;;9.07;100.00;100368.72;5116694;27;20043;-35
2021/12/24 10:37:26;;;;;;;8.75;1.48;;;;;;;9.09;100.00;100369.25;5118553;27;20389;-32
2021/12/24 10:39:55;;;;;;;6.78;1.10;;;;;;;9.12;100.00;100376.19;5128325;27;20039;-37
2021/12/24 10:42:27;;;;;;;7.40;1.20;;;;;;;9.14;100.00;100377.53;5101587;27;20039;-37
2021/12/24 10:44:56;;;;;;;;;;;;;;;9.09;100.00;100379.56;5109134;27;20134;-35
2021/12/24 10:47:27;;;;;;;4.10;0.65;;;;;;;9.07;100.00;100391.00;5126188;27;19986;-35
2021/12/24 10:50:12;;;;;;;4.25;0.77;;;;;;;9.09;100.00;100391.50;5115665;27;20051;-35
2021/12/24 10:52:57;;;;;;;5.13;0.90;;;;;;;9.10;100.00;100389.56;5127756;27;20053;-39
2021/12/24 10:55:30;;;;;;;4.28;0.77;;;;;;;9.11;100.00;100392.03;5116275;27;20125;-32
2021/12/24 10:58:00;;;;;;;3.42;0.65;;;;;;;9.09;100.00;100394.31;5117908;27;20089;-32
2021/12/24 11:00:31;;;;;;;3.60;0.70;;;;;;;9.06;100.00;100383.75;5129895;27;20496;-36
2021/12/24 11:03:02;;;;;;;3.90;0.60;;;;;;;9.03;100.00;100392.72;5128059;27;20051;-34
2021/12/24 11:05:35;;;;;;;3.22;0.55;;;;;;;9.02;100.00;100388.28;5114456;27;20047;-42
2021/12/24 11:08:05;;;;;;;2.22;0.50;;;;;;;9.01;100.00;100394.13;5125115;27;20047;-39
2021/12/24 11:10:34;;;;;;;3.17;0.50;;;;;;;8.99;100.00;100400.03;5130255;27;20552;-34
2021/12/24 11:13:08;;;;;;;2.38;0.45;;;;;;;8.99;100.00;100400.81;5126382;27;20035;-35
2021/12/24 11:15:38;;;;;;;4.07;0.57;;;;;;;8.98;100.00;100388.06;5113822;27;20515;-36
2021/12/24 11:18:08;;;;;;;2.28;0.50;;;;;;;9.02;100.00;100406.91;5126385;27;20078;-36
2021/12/24 11:20:38;;;;;;;2.13;0.50;;;;;;;9.02;100.00;100398.56;5112317;27;20044;-33
2021/12/24 11:23:08;;;;;;;2.60;0.50;;;;;;;9.02;100.00;100404.97;5124866;27;20050;-34
2021/12/24 11:25:38;;;;;;;4.90;0.60;;;;;;;8.97;100.00;100402.28;5113775;28;20047;-36
2021/12/24 11:28:08;;;;;;;2.80;0.60;;;;;;;8.93;100.00;100409.56;5123663;27;20039;-32
2021/12/24 11:30:38;;;;;;;3.35;0.80;;;;;;;8.88;100.00;100410.47;5115478;27;20046;-37
2021/12/24 11:33:06;;;;;;;1.98;0.55;;;;;;;8.84;100.00;100416.91;5122113;27;20431;-41
2021/12/24 11:35:34;;;;;;;3.08;0.50;;;;;;;8.81;100.00;100417.50;5117063;27;20051;-34
2021/12/24 11:38:03;;;;;;;2.58;0.80;;;;;;;8.77;100.00;100424.81;5121048;27;20043;-30
2021/12/24 11:40:31;;;;;;;4.20;0.70;;;;;;;8.72;100.00;100427.66;5131317;27;20046;-36
2021/12/24 11:43:03;;;;;;;2.35;0.45;;;;;;;8.69;100.00;100434.63;5123001;27;20483;-35
2021/12/24 11:45:33;;;;;;;1.73;0.55;;;;;;;8.68;100.00;100427.41;5120471;27;20079;-34
2021/12/24 11:48:01;;;;;;;2.75;0.70;;;;;;;8.64;100.00;100424.38;5101217;28;20093;-36
2021/12/24 11:50:31;;;;;;;1.98;0.50;;;;;;;8.61;100.00;100433.31;5122148;27;20076;-37
2021/12/24 11:53:01;;;;;;;1.73;0.50;;;;;;;8.59;100.00;100429.22;5116999;27;20054;-37
2021/12/24 11:55:35;;;;;;;2.28;0.50;;;;;;;8.59;100.00;100421.66;5130531;28;20067;-38
2021/12/24 11:58:06;;;;;;;2.67;0.57;;;;;;;8.61;100.00;100427.75;5126828;28;20502;-41
2021/12/24 12:00:38;;;;;;;3.20;0.60;;;;;;;8.58;100.00;100433.94;5119810;28;20054;-31
2021/12/24 12:03:06;;;;;;;1.00;0.40;;;;;;;8.55;100.00;100439.25;5125773;28;20126;-37
2021/12/24 12:05:37;;;;;;;2.38;0.70;;;;;;;8.55;100.00;100433.69;5122428;28;20411;-31
2021/12/24 12:08:33;;;;;;;4.55;1.60;;;;;;;8.53;100.00;100438.72;5115471;28;20039;-34
2021/12/24 12:11:06;;;;;;;2.42;1.20;;;;;;;8.49;100.00;100446.81;5121842;28;20141;-30
2021/12/24 12:13:45;;;;;;;2.80;1.00;;;;;;;8.46;100.00;100447.41;5116576;28;20042;-37
2021/12/24 12:16:15;;;;;;;2.95;0.85;;;;;;;8.44;100.00;100444.09;5121007;28;20061;-35
2021/12/24 12:18:47;;;;;;;2.60;0.68;;;;;;;8.45;100.00;100445.75;5116162;28;20108;-35
2021/12/24 12:21:23;;;;;;;2.50;1.00;;;;;;;8.45;100.00;100444.94;5130553;28;20412;-39
2021/12/24 12:26:41;;;;;;;3.03;0.90;;;;;;;8.43;100.00;100442.44;5086064;28;20346;-39
2021/12/24 12:29:43;;;;;;;1.95;0.80;;;;;;;8.46;100.00;100441.84;5125034;28;20043;-32
2021/12/24 12:32:43;;;;;;;4.28;1.02;;;;;;;8.48;100.00;100442.38;5080179;28;20146;-37
2021/12/24 12:35:12;;;;;;;2.08;0.80;;;;;;;8.47;100.00;100442.69;5122523;28;20145;-34
2021/12/24 12:37:49;;;;;;;3.95;1.83;;;;;;;8.47;100.00;100446.28;5115470;28;20051;-34
2021/12/24 12:40:32;;;;;;;3.50;1.40;;;;;;;8.47;100.00;100448.25;5119623;28;20527;-38
2021/12/24 12:43:12;;;;;;;2.10;0.82;;;;;;;8.45;100.00;100444.94;5127419;28;20075;-39
2021/12/24 12:45:55;;;;;;;3.05;0.75;;;;;;;8.43;100.00;100448.00;5122928;28;20054;-33